Chesterfield, Idaho
Current Conditions -  °F | °C
As of 8:53 PM on Wednesday 28 Jan 2015 (Local Time) from KPIH Reporting Station
Haze Haze  
Wind Chill: -2°   Ceiling: 800
Heat Index:   Visibility: 6mi
Dew Point:   Wind: 7mph
Humidity: 100%   Direction: 10°N
Pressure: 30.4"   Gusts: NA
Location:  42.811°N, 111.938°W
Report Text: KPIH 290353Z 01006KT 6SM BR OVC008 01/01 A3040 RMK AO2 SLP310 T00110011
Loading
Personal Weather Stations






























Interactive Weather Map New forecast layout! Learn more

10-Day Weather Forecast

Advertisements
Track Severe Weather on mobile